createdAt,value
2018-10-05T00:00:39.468Z,96303.34
2018-10-05T00:03:05.844Z,96293.63
2018-10-05T00:05:32.257Z,96290.70
2018-10-05T00:07:58.625Z,96291.96
2018-10-05T00:10:25.026Z,96285.14
2018-10-05T00:12:51.461Z,96287.76
2018-10-05T00:15:17.791Z,96282.66
2018-10-05T00:17:44.190Z,96277.95
2018-10-05T00:20:10.550Z,96279.78
2018-10-05T00:22:36.944Z,96276.86
2018-10-05T00:25:03.332Z,96270.81
2018-10-05T00:27:29.726Z,96258.89
2018-10-05T00:29:56.077Z,96261.92
2018-10-05T00:32:22.448Z,96252.95
2018-10-05T00:34:48.831Z,96255.09
2018-10-05T00:37:15.181Z,96257.30
2018-10-05T00:39:41.579Z,96264.20
2018-10-05T00:42:07.920Z,96263.01
2018-10-05T00:44:34.318Z,96266.87
2018-10-05T00:47:00.670Z,96265.59
2018-10-05T00:49:27.081Z,96267.77
2018-10-05T00:51:53.434Z,96271.25
2018-10-05T00:54:19.756Z,96269.02
2018-10-05T00:56:46.122Z,96270.05
2018-10-05T00:59:12.482Z,96267.59
2018-10-05T01:01:38.880Z,96258.57
2018-10-05T01:04:05.236Z,96258.52
2018-10-05T01:06:31.622Z,96259.83
2018-10-05T01:08:58.043Z,96251.39
2018-10-05T01:11:24.486Z,96253.84
2018-10-05T01:13:50.826Z,96253.46
2018-10-05T01:16:17.224Z,96257.52
2018-10-05T01:18:43.638Z,96258.16
2018-10-05T01:21:10.038Z,96259.64
2018-10-05T01:23:36.431Z,96260.05
2018-10-05T01:26:02.828Z,96256.86
2018-10-05T01:28:29.166Z,96259.93
2018-10-05T01:30:55.623Z,96260.58
2018-10-05T01:33:22.036Z,96257.30
2018-10-05T01:35:48.391Z,96262.32
2018-10-05T01:38:14.769Z,96264.17
2018-10-05T01:40:41.127Z,96263.83
2018-10-05T01:43:07.512Z,96256.44
2018-10-05T01:45:33.927Z,96263.31
2018-10-05T01:48:00.326Z,96263.43
2018-10-05T01:50:26.721Z,96272.44
2018-10-05T01:52:53.046Z,96277.92
2018-10-05T01:55:19.398Z,96275.23
2018-10-05T01:57:45.806Z,96279.36
2018-10-05T02:00:12.189Z,96275.16
2018-10-05T02:02:38.691Z,96274.43
2018-10-05T02:05:05.078Z,96272.39
2018-10-05T02:07:31.443Z,96268.08
2018-10-05T02:09:57.842Z,96266.06
2018-10-05T02:12:24.276Z,96267.98
2018-10-05T02:14:50.646Z,96268.59
2018-10-05T02:17:17.082Z,96264.47
2018-10-05T02:19:43.506Z,96273.78
2018-10-05T02:22:09.975Z,96270.03
2018-10-05T02:24:36.330Z,96270.69
2018-10-05T02:27:02.725Z,96267.45
2018-10-05T02:29:29.110Z,96275.13
2018-10-05T02:31:55.453Z,96277.92
2018-10-05T02:34:21.812Z,96277.96
2018-10-05T02:36:48.180Z,96283.81
2018-10-05T02:39:14.589Z,96286.45
2018-10-05T02:41:41.026Z,96283.92
2018-10-05T02:44:07.350Z,96281.70
2018-10-05T02:46:33.757Z,96280.09
2018-10-05T02:49:00.114Z,96279.55
2018-10-05T02:51:26.471Z,96286.92
2018-10-05T02:53:52.906Z,96288.63
2018-10-05T02:56:19.336Z,96287.45
2018-10-05T02:58:45.740Z,96289.70
2018-10-05T03:01:12.128Z,96296.97
2018-10-05T03:03:39.176Z,96296.08
2018-10-05T03:06:05.579Z,96292.05
2018-10-05T03:08:31.924Z,96297.58
2018-10-05T03:10:58.324Z,96305.34
2018-10-05T03:13:24.653Z,96300.11
2018-10-05T03:15:51.052Z,96300.08
2018-10-05T03:18:17.404Z,96298.25
2018-10-05T03:20:43.797Z,96296.76
2018-10-05T03:23:10.133Z,96302.34
2018-10-05T03:25:36.527Z,96308.43
2018-10-05T03:28:02.884Z,96300.84
2018-10-05T03:30:29.267Z,96299.25
2018-10-05T03:32:55.593Z,96297.11
2018-10-05T03:35:21.956Z,96304.48
2018-10-05T03:37:48.322Z,96297.36
2018-10-05T03:40:14.684Z,96296.02
2018-10-05T03:42:41.020Z,96297.11
2018-10-05T03:45:07.384Z,96298.32
2018-10-05T03:47:33.813Z,96295.98
2018-10-05T03:50:00.191Z,96292.29
2018-10-05T03:52:26.543Z,96292.56
2018-10-05T03:54:52.927Z,96301.10
2018-10-05T03:57:19.306Z,96297.59
2018-10-05T03:59:45.701Z,96297.16
2018-10-05T04:02:12.089Z,96298.00
2018-10-05T04:04:38.492Z,96303.12
2018-10-05T04:07:04.886Z,96300.42
2018-10-05T04:09:31.284Z,96301.69
2018-10-05T04:11:57.719Z,96300.56
2018-10-05T04:14:24.079Z,96297.64
2018-10-05T04:16:50.469Z,96302.55
2018-10-05T04:19:16.807Z,96302.25
2018-10-05T04:21:43.183Z,96306.36
2018-10-05T04:24:09.574Z,96299.49
2018-10-05T04:26:35.978Z,96306.01
2018-10-05T04:29:02.408Z,96298.77
2018-10-05T04:31:28.845Z,96299.57
2018-10-05T04:33:55.201Z,96309.36
2018-10-05T04:36:21.608Z,96299.89
2018-10-05T04:38:48.013Z,96301.40
2018-10-05T04:41:14.511Z,96303.01
2018-10-05T04:43:40.872Z,96299.59
2018-10-05T04:46:07.260Z,96299.98
2018-10-05T04:48:33.588Z,96313.00
2018-10-05T04:50:59.936Z,96312.95
2018-10-05T04:53:26.288Z,96316.05
2018-10-05T04:55:52.687Z,96314.55
2018-10-05T04:58:19.112Z,96322.53
2018-10-05T05:00:45.516Z,96323.77
2018-10-05T05:03:11.845Z,96324.58
2018-10-05T05:05:38.204Z,96328.62
2018-10-05T05:08:04.566Z,96334.47
2018-10-05T05:10:31.041Z,96336.42
2018-10-05T05:12:57.398Z,96340.35
2018-10-05T05:15:23.804Z,96339.77
2018-10-05T05:17:50.209Z,96341.10
2018-10-05T05:20:16.600Z,96342.24
2018-10-05T05:22:42.990Z,96351.33
2018-10-05T05:25:09.329Z,96352.88
2018-10-05T05:27:35.733Z,96350.47
2018-10-05T05:30:02.130Z,96350.91
2018-10-05T05:32:28.514Z,96359.34
2018-10-05T05:34:54.898Z,96359.42
2018-10-05T05:37:21.277Z,96364.87
2018-10-05T05:39:47.610Z,96368.81
2018-10-05T05:42:13.979Z,96369.98
2018-10-05T05:44:40.399Z,96371.11
2018-10-05T05:47:06.735Z,96372.61
2018-10-05T05:49:33.069Z,96375.31
2018-10-05T05:51:59.404Z,96373.36
2018-10-05T05:54:25.940Z,96379.91
2018-10-05T05:56:52.331Z,96374.67
2018-10-05T05:59:18.681Z,96377.49
2018-10-05T06:01:45.023Z,96375.89
2018-10-05T06:04:11.450Z,96375.90
2018-10-05T06:06:38.922Z,96377.28
2018-10-05T06:09:05.421Z,96382.55
2018-10-05T06:11:31.793Z,96389.35
2018-10-05T06:13:58.113Z,96384.07
2018-10-05T06:16:24.507Z,96379.50
2018-10-05T06:18:50.839Z,96378.91
2018-10-05T06:21:17.212Z,96389.06
2018-10-05T06:23:43.635Z,96391.67
2018-10-05T06:26:10.038Z,96390.59
2018-10-05T06:28:36.460Z,96388.45
2018-10-05T06:31:03.019Z,96380.43
2018-10-05T06:33:29.313Z,96384.48
2018-10-05T06:35:55.668Z,96380.42
2018-10-05T06:38:22.077Z,96381.39
2018-10-05T06:40:48.462Z,96384.28
2018-10-05T06:43:14.896Z,96377.66
2018-10-05T06:45:41.288Z,96387.31
2018-10-05T06:48:07.710Z,96383.45
2018-10-05T06:50:34.101Z,96382.22
2018-10-05T06:53:00.430Z,96375.19
2018-10-05T06:55:26.793Z,96380.06
2018-10-05T06:57:53.287Z,96384.70
2018-10-05T07:00:19.684Z,96376.73
2018-10-05T07:02:46.152Z,96376.43
2018-10-05T07:05:12.578Z,96377.30
2018-10-05T07:07:39.041Z,96379.22
2018-10-05T07:10:05.552Z,96372.13
2018-10-05T07:12:31.949Z,96368.33
2018-10-05T07:14:58.426Z,96367.56
2018-10-05T07:17:24.882Z,96371.96
2018-10-05T07:19:51.320Z,96365.59
2018-10-05T07:22:17.961Z,96368.36
2018-10-05T07:24:45.043Z,96368.89
2018-10-05T07:27:11.404Z,96370.86
2018-10-05T07:29:37.838Z,96367.88
2018-10-05T07:32:04.197Z,96367.25
2018-10-05T07:34:30.538Z,96360.02
2018-10-05T07:36:56.924Z,96361.18
2018-10-05T07:39:23.742Z,96362.95
2018-10-05T07:41:51.164Z,96366.29
2018-10-05T07:44:17.576Z,96363.59
2018-10-05T07:46:44.083Z,96363.95
2018-10-05T07:49:10.492Z,96365.17
2018-10-05T07:51:36.925Z,96368.25
2018-10-05T07:54:03.298Z,96365.55
2018-10-05T07:56:29.671Z,96364.14
2018-10-05T07:58:56.547Z,96361.72
2018-10-05T08:01:22.907Z,96355.09
2018-10-05T08:03:49.406Z,96355.52
2018-10-05T08:06:15.855Z,96360.56
2018-10-05T08:08:42.281Z,96356.53
2018-10-05T08:11:08.664Z,96358.92
2018-10-05T08:13:35.149Z,96346.75
2018-10-05T08:16:01.531Z,96347.81
2018-10-05T08:18:28.522Z,96348.61
2018-10-05T08:20:54.998Z,96344.39
2018-10-05T08:23:21.386Z,96354.06
2018-10-05T08:25:47.830Z,96350.30
2018-10-05T08:28:14.221Z,96347.90
2018-10-05T08:30:40.655Z,96346.54
2018-10-05T08:33:07.033Z,96343.37
2018-10-05T08:35:33.427Z,96341.23
2018-10-05T08:37:59.788Z,96340.91
2018-10-05T08:40:26.162Z,96334.08
2018-10-05T08:42:52.610Z,96328.25
2018-10-05T08:45:19.119Z,96326.78
2018-10-05T08:47:45.554Z,96330.66
2018-10-05T08:50:11.915Z,96327.94
2018-10-05T08:52:38.282Z,96328.92
2018-10-05T08:55:04.714Z,96326.11
2018-10-05T08:57:31.085Z,96327.94
2018-10-05T08:59:57.568Z,96321.26
2018-10-05T09:02:24.025Z,96322.80
2018-10-05T09:04:50.445Z,96318.53
2018-10-05T09:07:16.914Z,96319.35
2018-10-05T09:09:43.442Z,96308.67
2018-10-05T09:12:09.961Z,96305.22
2018-10-05T09:14:36.353Z,96301.61
2018-10-05T09:17:02.715Z,96299.10
2018-10-05T09:19:29.079Z,96293.08
2018-10-05T09:21:55.550Z,96291.24
2018-10-05T09:24:21.921Z,96281.45
2018-10-05T09:26:48.275Z,96280.34
2018-10-05T09:29:14.713Z,96272.09
2018-10-05T09:31:41.200Z,96276.83
2018-10-05T09:34:07.608Z,96276.41
2018-10-05T09:36:34.039Z,96273.66
2018-10-05T09:39:00.470Z,96273.56
2018-10-05T09:41:26.901Z,96274.95
2018-10-05T09:43:53.296Z,96273.87
2018-10-05T09:46:19.664Z,96268.19
2018-10-05T09:48:46.022Z,96271.36
2018-10-05T09:51:12.484Z,96264.03
2018-10-05T09:53:38.892Z,96264.19
2018-10-05T09:56:05.235Z,96256.23
2018-10-05T09:58:31.971Z,96254.86
2018-10-05T10:00:58.363Z,96250.64
2018-10-05T10:03:24.779Z,96253.64
2018-10-05T10:05:52.231Z,96243.39
2018-10-05T10:08:18.577Z,96242.95
2018-10-05T10:10:44.951Z,96242.86
2018-10-05T10:13:11.350Z,96247.73
2018-10-05T10:15:37.709Z,96247.12
2018-10-05T10:18:04.140Z,96248.85
2018-10-05T10:20:30.518Z,96244.16
2018-10-05T10:22:56.853Z,96240.84
2018-10-05T10:25:23.237Z,96225.23
2018-10-05T10:27:49.684Z,96227.62
2018-10-05T10:30:16.071Z,96223.22
2018-10-05T10:32:42.437Z,96215.94
2018-10-05T10:35:08.843Z,96209.46
2018-10-05T10:37:35.257Z,96207.48
2018-10-05T10:40:01.719Z,96205.13
2018-10-05T10:42:28.078Z,96204.67
2018-10-05T10:44:54.480Z,96200.92
2018-10-05T10:47:20.835Z,96201.73
2018-10-05T10:49:47.223Z,96189.11
2018-10-05T10:52:13.711Z,96188.19
2018-10-05T10:54:40.421Z,96173.59
2018-10-05T10:57:06.854Z,96179.89
2018-10-05T10:59:33.231Z,96179.56
2018-10-05T11:01:59.674Z,96171.34
2018-10-05T11:04:26.083Z,96173.38
2018-10-05T11:06:53.219Z,96167.62
2018-10-05T11:09:19.640Z,96157.45
2018-10-05T11:11:46.108Z,96154.83
2018-10-05T11:14:12.524Z,96147.30
2018-10-05T11:16:38.915Z,96152.48
2018-10-05T11:19:05.318Z,96151.46
2018-10-05T11:21:31.697Z,96155.77
2018-10-05T11:23:58.055Z,96148.61
2018-10-05T11:26:24.518Z,96151.91
2018-10-05T11:28:50.890Z,96148.65
2018-10-05T11:31:17.277Z,96146.22
2018-10-05T11:33:43.676Z,96145.27
2018-10-05T11:36:10.041Z,96140.77
2018-10-05T11:38:36.422Z,96137.54
2018-10-05T11:41:02.780Z,96130.04
2018-10-05T11:43:29.134Z,96130.39
2018-10-05T11:45:55.558Z,96126.34
2018-10-05T11:48:22.031Z,96139.61
2018-10-05T11:50:48.482Z,96126.50
2018-10-05T11:53:15.015Z,96132.71
2018-10-05T11:55:41.712Z,96132.63
2018-10-05T11:58:08.137Z,96130.32
2018-10-05T12:00:34.547Z,96129.41
2018-10-05T12:03:00.934Z,96127.17
2018-10-05T12:05:27.365Z,96122.97
2018-10-05T12:07:53.749Z,96124.63
2018-10-05T12:10:20.179Z,96121.03
2018-10-05T12:12:46.559Z,96119.86
2018-10-05T12:15:12.983Z,96119.22
2018-10-05T12:17:39.421Z,96114.89
2018-10-05T12:20:05.811Z,96111.78
2018-10-05T12:22:32.279Z,96115.72
2018-10-05T12:24:58.664Z,96108.98
2018-10-05T12:27:25.078Z,96104.27
2018-10-05T12:29:51.409Z,96103.12
2018-10-05T12:32:17.727Z,96098.77
2018-10-05T12:34:44.156Z,96098.73
2018-10-05T12:37:10.724Z,96089.33
2018-10-05T12:39:37.128Z,96087.36
2018-10-05T12:42:04.342Z,96090.19
2018-10-05T12:44:30.924Z,96082.35
2018-10-05T12:46:57.325Z,96074.73
2018-10-05T12:49:23.721Z,96080.45
2018-10-05T12:51:50.082Z,96080.63
2018-10-05T12:54:16.550Z,96074.42
2018-10-05T12:56:43.674Z,96079.61
2018-10-05T12:59:10.024Z,96074.42
2018-10-05T13:01:36.389Z,96070.23
2018-10-05T13:04:02.862Z,96068.31
2018-10-05T13:06:29.296Z,96069.59
2018-10-05T13:08:55.677Z,96068.11
2018-10-05T13:11:22.141Z,96070.00
2018-10-05T13:13:48.521Z,96063.94
2018-10-05T13:16:14.869Z,96070.00
2018-10-05T13:18:41.220Z,96059.99
2018-10-05T13:21:07.920Z,96059.53
2018-10-05T13:23:34.251Z,96054.21
2018-10-05T13:26:00.606Z,96056.36
2018-10-05T13:28:26.978Z,96051.31
2018-10-05T13:30:53.351Z,96052.31
2018-10-05T13:33:19.737Z,96053.32
2018-10-05T13:35:46.109Z,96048.44
2018-10-05T13:38:12.462Z,96058.03
2018-10-05T13:40:39.056Z,96053.37
2018-10-05T13:43:05.464Z,96055.59
2018-10-05T13:45:31.808Z,96052.91
2018-10-05T13:47:58.194Z,96050.39
2018-10-05T13:50:25.324Z,96053.23
2018-10-05T13:52:51.825Z,96048.56
2018-10-05T13:55:18.294Z,96052.13
2018-10-05T13:57:44.664Z,96055.87
2018-10-05T14:00:11.238Z,96052.41
2018-10-05T14:02:37.745Z,96053.11
2018-10-05T14:05:04.177Z,96059.66
2018-10-05T14:07:30.551Z,96056.50
2018-10-05T14:09:56.968Z,96054.88
2018-10-05T14:12:23.317Z,96051.13
2018-10-05T14:14:49.797Z,96047.95
2018-10-05T14:17:16.243Z,96054.44
2018-10-05T14:19:42.690Z,96052.52
2018-10-05T14:22:09.166Z,96047.92
2018-10-05T14:24:35.572Z,96050.60
2018-10-05T14:27:02.116Z,96058.24
2018-10-05T14:29:28.644Z,96055.92
2018-10-05T14:31:55.082Z,96057.33
2018-10-05T14:34:21.488Z,96054.98
2018-10-05T14:36:47.846Z,96058.06
2018-10-05T14:39:14.573Z,96049.45
2018-10-05T14:41:41.228Z,96053.06
2018-10-05T14:44:07.721Z,96055.98
2018-10-05T14:46:34.086Z,96053.02
2018-10-05T14:49:00.526Z,96057.38
2018-10-05T14:51:26.876Z,96057.01
2018-10-05T14:53:53.307Z,96052.21
2018-10-05T14:56:19.795Z,96057.15
2018-10-05T14:58:46.196Z,96058.67
2018-10-05T15:01:12.639Z,96058.86
2018-10-05T15:03:39.046Z,96058.63
2018-10-05T15:06:05.437Z,96056.14
2018-10-05T15:08:31.834Z,96055.22
2018-10-05T15:10:58.267Z,96057.22
2018-10-05T15:13:24.596Z,96062.30
2018-10-05T15:15:50.992Z,96060.37
2018-10-05T15:18:17.340Z,96062.84
2018-10-05T15:20:43.807Z,96066.24
2018-10-05T15:23:10.272Z,96070.17
2018-10-05T15:25:36.704Z,96070.73
2018-10-05T15:28:03.101Z,96070.84
2018-10-05T15:30:29.536Z,96075.17
2018-10-05T15:32:56.004Z,96074.14
2018-10-05T15:35:22.304Z,96079.45
2018-10-05T15:37:48.767Z,96076.47
2018-10-05T15:40:15.088Z,96074.72
2018-10-05T15:42:41.489Z,96075.71
2018-10-05T15:45:08.004Z,96076.35
2018-10-05T15:47:34.334Z,96086.83
2018-10-05T15:50:00.728Z,96078.78
2018-10-05T15:52:27.073Z,96085.96
2018-10-05T15:54:53.449Z,96084.82
2018-10-05T15:57:19.919Z,96085.09
2018-10-05T15:59:46.427Z,96081.87
2018-10-05T16:02:12.861Z,96096.50
2018-10-05T16:04:39.215Z,96097.30
2018-10-05T16:07:05.546Z,96095.36
2018-10-05T16:09:31.879Z,96091.66
2018-10-05T16:11:58.299Z,96091.20
2018-10-05T16:14:24.719Z,96093.09
2018-10-05T16:16:51.048Z,96088.02
2018-10-05T16:19:17.507Z,96088.44
2018-10-05T16:21:43.908Z,96096.73
2018-10-05T16:24:10.241Z,96095.22
2018-10-05T16:26:36.639Z,96095.86
2018-10-05T16:29:02.995Z,96093.28
2018-10-05T16:31:29.395Z,96093.70
2018-10-05T16:33:55.753Z,96093.52
2018-10-05T16:36:22.110Z,96096.20
2018-10-05T16:38:48.506Z,96094.11
2018-10-05T16:41:14.963Z,96104.69
2018-10-05T16:46:08.310Z,96103.92
2018-10-05T16:48:34.773Z,96096.09
2018-10-05T16:51:01.178Z,96105.86
2018-10-05T16:53:27.567Z,96102.94
2018-10-05T16:55:53.940Z,96105.17
2018-10-05T16:58:20.333Z,96103.50
2018-10-05T17:00:46.660Z,96108.84
2018-10-05T17:03:13.205Z,96112.55
2018-10-05T17:05:39.532Z,96109.48
2018-10-05T17:08:05.930Z,96118.77
2018-10-05T17:10:32.394Z,96123.32
2018-10-05T17:12:58.749Z,96117.48
2018-10-05T17:15:25.082Z,96122.37
2018-10-05T17:17:51.440Z,96128.89
2018-10-05T17:20:17.793Z,96136.36
2018-10-05T17:22:44.222Z,96135.11
2018-10-05T17:25:10.591Z,96140.53
2018-10-05T17:27:36.986Z,96145.27
2018-10-05T17:30:03.344Z,96134.69
2018-10-05T17:32:29.744Z,96133.97
2018-10-05T17:34:56.132Z,96132.94
2018-10-05T17:37:22.551Z,96139.56
2018-10-05T17:39:48.945Z,96134.28
2018-10-05T17:42:15.332Z,96138.56
2018-10-05T17:44:41.840Z,96137.80
2018-10-05T17:47:08.273Z,96137.16
2018-10-05T17:49:34.641Z,96140.59
2018-10-05T17:52:01.026Z,96142.14
2018-10-05T17:54:27.364Z,96149.86
2018-10-05T17:56:53.765Z,96150.08
2018-10-05T17:59:20.141Z,96149.70
2018-10-05T18:01:46.586Z,96161.89
2018-10-05T18:04:12.945Z,96161.92
2018-10-05T18:06:39.297Z,96156.53
2018-10-05T18:09:05.657Z,96165.69
2018-10-05T18:11:32.106Z,96161.13
2018-10-05T18:13:58.456Z,96164.66
2018-10-05T18:16:24.948Z,96164.20
2018-10-05T18:18:51.352Z,96164.34
2018-10-05T18:21:17.822Z,96155.97
2018-10-05T18:23:44.353Z,96163.41
2018-10-05T18:26:10.794Z,96163.48
2018-10-05T18:28:37.136Z,96157.67
2018-10-05T18:31:03.535Z,96161.92
2018-10-05T18:33:29.874Z,96160.95
2018-10-05T18:35:56.298Z,96155.03
2018-10-05T18:38:22.644Z,96151.31
2018-10-05T18:40:49.025Z,96148.73
2018-10-05T18:43:15.439Z,96154.93
2018-10-05T18:45:42.413Z,96153.23
2018-10-05T18:48:08.749Z,96156.50
2018-10-05T18:50:35.120Z,96155.59
2018-10-05T18:53:01.475Z,96151.91
2018-10-05T18:55:27.864Z,96156.33
2018-10-05T18:57:54.342Z,96153.89
2018-10-05T19:00:20.743Z,96151.77
2018-10-05T19:02:47.138Z,96160.43
2018-10-05T19:05:13.503Z,96154.55
2018-10-05T19:07:39.900Z,96162.30
2018-10-05T19:10:06.339Z,96160.25
2018-10-05T19:12:32.706Z,96163.03
2018-10-05T19:14:59.307Z,96165.73
2018-10-05T19:17:25.664Z,96169.19
2018-10-05T19:19:52.011Z,96167.20
2018-10-05T19:22:18.370Z,96161.53
2018-10-05T19:24:44.736Z,96166.47
2018-10-05T19:27:11.068Z,96159.72
2018-10-05T19:29:37.409Z,96159.48
2018-10-05T19:32:03.763Z,96163.75
2018-10-05T19:34:30.175Z,96165.45
2018-10-05T19:36:56.514Z,96163.57
2018-10-05T19:39:22.913Z,96169.97
2018-10-05T19:41:49.268Z,96167.50
2018-10-05T19:44:15.696Z,96172.39
2018-10-05T19:46:42.093Z,96175.52
2018-10-05T19:49:08.481Z,96174.40
2018-10-05T19:51:34.884Z,96172.80
2018-10-05T19:54:01.258Z,96168.94
2018-10-05T19:56:27.591Z,96172.03
2018-10-05T19:58:54.007Z,96172.55
2018-10-05T20:01:20.361Z,96174.00
2018-10-05T20:03:46.782Z,96172.33
2018-10-05T20:06:13.143Z,96174.66
2018-10-05T20:08:39.478Z,96177.74
2018-10-05T20:11:05.816Z,96174.66
2018-10-05T20:13:32.148Z,96176.11
2018-10-05T20:15:58.518Z,96175.37
2018-10-05T20:18:24.984Z,96179.23
2018-10-05T20:20:51.265Z,96176.17
2018-10-05T20:23:17.658Z,96176.44
2018-10-05T20:25:44.028Z,96176.47
2018-10-05T20:28:10.404Z,96173.16
2018-10-05T20:30:36.740Z,96174.48
2018-10-05T20:33:03.140Z,96174.89
2018-10-05T20:35:29.491Z,96174.61
2018-10-05T20:37:55.958Z,96172.59
2018-10-05T20:40:22.305Z,96178.15
2018-10-05T20:42:48.677Z,96170.92
2018-10-05T20:45:15.030Z,96172.63
2018-10-05T20:47:41.374Z,96178.22
2018-10-05T20:50:07.743Z,96173.20
2018-10-05T20:52:34.077Z,96178.62
2018-10-05T20:55:00.478Z,96178.59
2018-10-05T20:57:26.875Z,96172.63
2018-10-05T20:59:53.499Z,96168.41
2018-10-05T21:02:19.891Z,96168.93
2018-10-05T21:04:46.273Z,96172.44
2018-10-05T21:07:12.679Z,96177.16
2018-10-05T21:09:39.084Z,96182.36
2018-10-05T21:12:05.523Z,96180.44
2018-10-05T21:14:31.927Z,96178.77
2018-10-05T21:16:58.359Z,96174.84
2018-10-05T21:19:24.791Z,96176.97
2018-10-05T21:21:51.183Z,96180.05
2018-10-05T21:24:17.635Z,96178.67
2018-10-05T21:26:44.014Z,96182.98
2018-10-05T21:29:10.446Z,96186.48
2018-10-05T21:31:36.872Z,96188.86
2018-10-05T21:34:03.308Z,96186.03
2018-10-05T21:36:29.675Z,96188.95
2018-10-05T21:38:56.107Z,96189.17
2018-10-05T21:41:22.528Z,96189.69
2018-10-05T21:43:48.898Z,96190.97
2018-10-05T21:46:15.329Z,96192.35
2018-10-05T21:48:41.729Z,96186.16
2018-10-05T21:51:08.261Z,96179.47
2018-10-05T21:53:34.800Z,96178.28
2018-10-05T21:56:01.239Z,96179.83
2018-10-05T21:58:27.635Z,96176.64
2018-10-05T22:00:54.030Z,96176.34
2018-10-05T22:03:20.464Z,96175.48
2018-10-05T22:05:46.870Z,96176.83
2018-10-05T22:08:13.266Z,96178.39
2018-10-05T22:10:39.826Z,96177.14
2018-10-05T22:13:06.233Z,96175.98
2018-10-05T22:15:32.619Z,96173.38
2018-10-05T22:17:59.002Z,96173.09
2018-10-05T22:20:25.418Z,96171.30
2018-10-05T22:22:51.888Z,96171.48
2018-10-05T22:25:18.292Z,96166.09
2018-10-05T22:27:44.731Z,96172.09
2018-10-05T22:30:11.098Z,96171.31
2018-10-05T22:32:37.486Z,96166.33
2018-10-05T22:35:03.933Z,96162.09
2018-10-05T22:37:30.319Z,96162.09
2018-10-05T22:39:56.750Z,96157.53
2018-10-05T22:42:23.119Z,96157.09
2018-10-05T22:44:49.518Z,96161.92
2018-10-05T22:47:16.010Z,96161.36
2018-10-05T22:49:42.443Z,96169.36
2018-10-05T22:52:08.882Z,96169.39
2018-10-05T22:54:35.304Z,96163.09
2018-10-05T22:57:01.735Z,96163.88
2018-10-05T22:59:28.123Z,96165.31
2018-10-05T23:01:54.537Z,96164.98
2018-10-05T23:04:20.922Z,96162.52
2018-10-05T23:06:47.346Z,96162.92
2018-10-05T23:09:13.750Z,96159.20
2018-10-05T23:11:40.437Z,96156.76
2018-10-05T23:14:06.807Z,96165.65
2018-10-05T23:16:33.197Z,96165.03
2018-10-05T23:18:59.592Z,96160.40
2018-10-05T23:21:26.065Z,96165.95
2018-10-05T23:23:52.441Z,96161.52
2018-10-05T23:26:18.912Z,96164.10
2018-10-05T23:28:45.299Z,96161.00
2018-10-05T23:31:11.806Z,96162.44
2018-10-05T23:33:38.232Z,96155.66
2018-10-05T23:36:04.755Z,96151.39
2018-10-05T23:38:31.161Z,96151.42
2018-10-05T23:40:57.707Z,96145.07
2018-10-05T23:43:24.100Z,96149.46
2018-10-05T23:45:50.542Z,96140.92
2018-10-05T23:48:17.083Z,96135.50
2018-10-05T23:50:43.513Z,96143.17
2018-10-05T23:53:09.967Z,96138.84
2018-10-05T23:55:36.529Z,96143.38
2018-10-05T23:58:02.903Z,96147.17
